RJOW

Details ICAO RJOW (IWJ)
Name IWAMI
Region Japan
Timezone Asia/Tokyo (UTC+9.0)
Plans Departing 0
Arriving 3
Stats Elevation 184 ft / 56 m (AMSL)
Location 34.676394° 131.790310°
Runways 1
Magnetic Variation 7.821° W
Sunrise 2018-05-21 20:07:07 UTC / 2018-05-22 05:07:07 Local
Sunset 2018-05-22 10:14:41 UTC / 2018-05-22 19:14:41 Local
Advertisement - Login to hide

Runways

ID Width Length Bearing (true) Bearing (mag) Surface Threshold Offset Overrun Length
11 148 ft / 45 m 6,552 ft / 1,997 m 104.84° 112.66° Asphalt 0 ft / 0 m 197 ft / 60 m
29 148 ft / 45 m 6,552 ft / 1,997 m 284.85° 292.67° Asphalt 0 ft / 0 m 197 ft / 60 m

Map

Weather


0- 5 10 15 20 25 30 35+ Temperature / ° C

Clouds and Precipitation
Forecast for 2018-05-21 18:00 UTC. Updated 6 hours ago

Ground ~20,000 ft ~40,000 ft Winds

METAR

RJOW 212300Z 15004KT 110V190 9999 FEW030 SCT080 18/10 Q1016

TAF

Not found
Warning: Do not use this data for real-world aviation or navigation. No guarantee of current accuracy is given.